<?xml version="1.0" encoding="UTF-8" standalone="no" ?>
<gpx xmlns="http://www.topografix.com/GPX/1/1" xmlns:xsi="http://www.w3.org/2001/XMLSchema-instance" xsi:schemaLocation="http://www.topografix.com/GPX/1/1 http://www.topografix.com/GPX/1/1/gpx.xsd" version="1.1" creator="VisuGPX - https://www.visugpx.com">
  <metadata>
    <name>Course à pied le midi</name>
  </metadata>
  <trk>
    <name><![CDATA[Course à pied le midi_1]]></name>
    <trkseg>
      <trkpt lat="48.67293" lon="7.25404">
        <ele>492.5</ele>
        <time>2023-10-06T09:49:00Z</time>
      </trkpt>
      <trkpt lat="48.67295" lon="7.25399">
        <ele>492.3</ele>
        <time>2023-10-06T09:49:02Z</time>
      </trkpt>
      <trkpt lat="48.67301" lon="7.25371">
        <ele>491.5</ele>
        <time>2023-10-06T09:49:10Z</time>
      </trkpt>
      <trkpt lat="48.67306" lon="7.25343">
        <ele>490.6</ele>
        <time>2023-10-06T09:49:18Z</time>
      </trkpt>
      <trkpt lat="48.6732" lon="7.25323">
        <ele>489.4</ele>
        <time>2023-10-06T09:49:26Z</time>
      </trkpt>
      <trkpt lat="48.67332" lon="7.25301">
        <ele>487.9</ele>
        <time>2023-10-06T09:49:33Z</time>
      </trkpt>
      <trkpt lat="48.67344" lon="7.2528">
        <ele>486</ele>
        <time>2023-10-06T09:49:39Z</time>
      </trkpt>
      <trkpt lat="48.67357" lon="7.2526">
        <ele>484.2</ele>
        <time>2023-10-06T09:49:45Z</time>
      </trkpt>
      <trkpt lat="48.67372" lon="7.2524">
        <ele>483.1</ele>
        <time>2023-10-06T09:49:52Z</time>
      </trkpt>
      <trkpt lat="48.67385" lon="7.25218">
        <ele>482.6</ele>
        <time>2023-10-06T09:50:00Z</time>
      </trkpt>
      <trkpt lat="48.67396" lon="7.25193">
        <ele>482.3</ele>
        <time>2023-10-06T09:50:09Z</time>
      </trkpt>
      <trkpt lat="48.67407" lon="7.25166">
        <ele>481.3</ele>
        <time>2023-10-06T09:50:16Z</time>
      </trkpt>
      <trkpt lat="48.6742" lon="7.25146">
        <ele>480</ele>
        <time>2023-10-06T09:50:22Z</time>
      </trkpt>
      <trkpt lat="48.67436" lon="7.25134">
        <ele>478.8</ele>
        <time>2023-10-06T09:50:28Z</time>
      </trkpt>
      <trkpt lat="48.67453" lon="7.25118">
        <ele>477.4</ele>
        <time>2023-10-06T09:50:35Z</time>
      </trkpt>
      <trkpt lat="48.67466" lon="7.25093">
        <ele>475.8</ele>
        <time>2023-10-06T09:50:42Z</time>
      </trkpt>
      <trkpt lat="48.67479" lon="7.25074">
        <ele>474.7</ele>
        <time>2023-10-06T09:50:48Z</time>
      </trkpt>
      <trkpt lat="48.67495" lon="7.25055">
        <ele>474.4</ele>
        <time>2023-10-06T09:50:55Z</time>
      </trkpt>
      <trkpt lat="48.67509" lon="7.25035">
        <ele>474.6</ele>
        <time>2023-10-06T09:51:04Z</time>
      </trkpt>
      <trkpt lat="48.67524" lon="7.25015">
        <ele>474</ele>
        <time>2023-10-06T09:51:12Z</time>
      </trkpt>
      <trkpt lat="48.67537" lon="7.24994">
        <ele>471.9</ele>
        <time>2023-10-06T09:51:18Z</time>
      </trkpt>
      <trkpt lat="48.67547" lon="7.24971">
        <ele>469.9</ele>
        <time>2023-10-06T09:51:23Z</time>
      </trkpt>
      <trkpt lat="48.67554" lon="7.24944">
        <ele>470.5</ele>
        <time>2023-10-06T09:51:29Z</time>
      </trkpt>
      <trkpt lat="48.67553" lon="7.24915">
        <ele>472.1</ele>
        <time>2023-10-06T09:51:38Z</time>
      </trkpt>
      <trkpt lat="48.6756" lon="7.24888">
        <ele>474</ele>
        <time>2023-10-06T09:51:49Z</time>
      </trkpt>
      <trkpt lat="48.67559" lon="7.24857">
        <ele>474.8</ele>
        <time>2023-10-06T09:51:59Z</time>
      </trkpt>
      <trkpt lat="48.67556" lon="7.24827">
        <ele>475.1</ele>
        <time>2023-10-06T09:52:08Z</time>
      </trkpt>
      <trkpt lat="48.67556" lon="7.24799">
        <ele>475.5</ele>
        <time>2023-10-06T09:52:16Z</time>
      </trkpt>
      <trkpt lat="48.67558" lon="7.24771">
        <ele>476.7</ele>
        <time>2023-10-06T09:52:23Z</time>
      </trkpt>
      <trkpt lat="48.67558" lon="7.24762">
        <ele>477.2</ele>
        <time>2023-10-06T09:52:30Z</time>
      </trkpt>
      <trkpt lat="48.67558" lon="7.24735">
        <ele>478.8</ele>
        <time>2023-10-06T09:52:41Z</time>
      </trkpt>
      <trkpt lat="48.67568" lon="7.24709">
        <ele>480.9</ele>
        <time>2023-10-06T09:52:51Z</time>
      </trkpt>
      <trkpt lat="48.67579" lon="7.24684">
        <ele>483.3</ele>
        <time>2023-10-06T09:53:02Z</time>
      </trkpt>
      <trkpt lat="48.67587" lon="7.24658">
        <ele>485.7</ele>
        <time>2023-10-06T09:53:13Z</time>
      </trkpt>
      <trkpt lat="48.67593" lon="7.24642">
        <ele>487.3</ele>
        <time>2023-10-06T09:53:21Z</time>
      </trkpt>
      <trkpt lat="48.67603" lon="7.24619">
        <ele>489.6</ele>
        <time>2023-10-06T09:53:31Z</time>
      </trkpt>
      <trkpt lat="48.67612" lon="7.24592">
        <ele>492</ele>
        <time>2023-10-06T09:53:41Z</time>
      </trkpt>
      <trkpt lat="48.67623" lon="7.24568">
        <ele>494.4</ele>
        <time>2023-10-06T09:53:51Z</time>
      </trkpt>
      <trkpt lat="48.67637" lon="7.2455">
        <ele>496.4</ele>
        <time>2023-10-06T09:54:01Z</time>
      </trkpt>
      <trkpt lat="48.67651" lon="7.24532">
        <ele>498</ele>
        <time>2023-10-06T09:54:12Z</time>
      </trkpt>
      <trkpt lat="48.67664" lon="7.24513">
        <ele>499.6</ele>
        <time>2023-10-06T09:54:22Z</time>
      </trkpt>
      <trkpt lat="48.67678" lon="7.24489">
        <ele>501</ele>
        <time>2023-10-06T09:54:32Z</time>
      </trkpt>
      <trkpt lat="48.67692" lon="7.24473">
        <ele>502.3</ele>
        <time>2023-10-06T09:54:42Z</time>
      </trkpt>
      <trkpt lat="48.67709" lon="7.2446">
        <ele>505</ele>
        <time>2023-10-06T09:54:50Z</time>
      </trkpt>
      <trkpt lat="48.67716" lon="7.24465">
        <ele>503.9</ele>
        <time>2023-10-06T09:54:56Z</time>
      </trkpt>
      <trkpt lat="48.67713" lon="7.2449">
        <ele>502.1</ele>
        <time>2023-10-06T09:55:10Z</time>
      </trkpt>
      <trkpt lat="48.67705" lon="7.24502">
        <ele>501.3</ele>
        <time>2023-10-06T09:55:19Z</time>
      </trkpt>
      <trkpt lat="48.67695" lon="7.24509">
        <ele>500.8</ele>
        <time>2023-10-06T09:55:26Z</time>
      </trkpt>
      <trkpt lat="48.6768" lon="7.24527">
        <ele>499.8</ele>
        <time>2023-10-06T09:55:34Z</time>
      </trkpt>
      <trkpt lat="48.67664" lon="7.24549">
        <ele>498.3</ele>
        <time>2023-10-06T09:55:39Z</time>
      </trkpt>
      <trkpt lat="48.67651" lon="7.2457">
        <ele>496.9</ele>
        <time>2023-10-06T09:55:44Z</time>
      </trkpt>
      <trkpt lat="48.67638" lon="7.2459">
        <ele>495.4</ele>
        <time>2023-10-06T09:55:49Z</time>
      </trkpt>
      <trkpt lat="48.67627" lon="7.24612">
        <ele>493.7</ele>
        <time>2023-10-06T09:55:56Z</time>
      </trkpt>
      <trkpt lat="48.6762" lon="7.24629">
        <ele>492.3</ele>
        <time>2023-10-06T09:56:05Z</time>
      </trkpt>
      <trkpt lat="48.67627" lon="7.24631">
        <ele>491.6</ele>
        <time>2023-10-06T09:56:37Z</time>
      </trkpt>
      <trkpt lat="48.67624" lon="7.24624">
        <ele>491.1</ele>
        <time>2023-10-06T09:56:40Z</time>
      </trkpt>
      <trkpt lat="48.67636" lon="7.24604">
        <ele>493.4</ele>
        <time>2023-10-06T09:56:49Z</time>
      </trkpt>
      <trkpt lat="48.67647" lon="7.24578">
        <ele>495.8</ele>
        <time>2023-10-06T09:56:57Z</time>
      </trkpt>
      <trkpt lat="48.6766" lon="7.24555">
        <ele>497.8</ele>
        <time>2023-10-06T09:57:04Z</time>
      </trkpt>
      <trkpt lat="48.67676" lon="7.24536">
        <ele>499.6</ele>
        <time>2023-10-06T09:57:11Z</time>
      </trkpt>
      <trkpt lat="48.67691" lon="7.24517">
        <ele>501</ele>
        <time>2023-10-06T09:57:18Z</time>
      </trkpt>
      <trkpt lat="48.67707" lon="7.24502">
        <ele>502.5</ele>
        <time>2023-10-06T09:57:26Z</time>
      </trkpt>
      <trkpt lat="48.67718" lon="7.24481">
        <ele>507.6</ele>
        <time>2023-10-06T09:57:33Z</time>
      </trkpt>
      <trkpt lat="48.67716" lon="7.24459">
        <ele>504.8</ele>
        <time>2023-10-06T09:57:40Z</time>
      </trkpt>
      <trkpt lat="48.67711" lon="7.24458">
        <ele>504.1</ele>
        <time>2023-10-06T09:57:42Z</time>
      </trkpt>
      <trkpt lat="48.67694" lon="7.2447">
        <ele>501.8</ele>
        <time>2023-10-06T09:57:47Z</time>
      </trkpt>
      <trkpt lat="48.6768" lon="7.2449">
        <ele>500.7</ele>
        <time>2023-10-06T09:57:53Z</time>
      </trkpt>
      <trkpt lat="48.6767" lon="7.24513">
        <ele>499.4</ele>
        <time>2023-10-06T09:58:00Z</time>
      </trkpt>
      <trkpt lat="48.67664" lon="7.24527">
        <ele>498.6</ele>
        <time>2023-10-06T09:58:06Z</time>
      </trkpt>
      <trkpt lat="48.67667" lon="7.24522">
        <ele>498.2</ele>
        <time>2023-10-06T09:58:29Z</time>
      </trkpt>
      <trkpt lat="48.67662" lon="7.24519">
        <ele>497.8</ele>
        <time>2023-10-06T09:58:35Z</time>
      </trkpt>
      <trkpt lat="48.67649" lon="7.24543">
        <ele>496</ele>
        <time>2023-10-06T09:58:43Z</time>
      </trkpt>
      <trkpt lat="48.67635" lon="7.24561">
        <ele>494.1</ele>
        <time>2023-10-06T09:58:50Z</time>
      </trkpt>
      <trkpt lat="48.67619" lon="7.2458">
        <ele>491.8</ele>
        <time>2023-10-06T09:58:56Z</time>
      </trkpt>
      <trkpt lat="48.67606" lon="7.24605">
        <ele>489.3</ele>
        <time>2023-10-06T09:59:02Z</time>
      </trkpt>
      <trkpt lat="48.67596" lon="7.24629">
        <ele>487.1</ele>
        <time>2023-10-06T09:59:08Z</time>
      </trkpt>
      <trkpt lat="48.67585" lon="7.24651">
        <ele>484.8</ele>
        <time>2023-10-06T09:59:13Z</time>
      </trkpt>
      <trkpt lat="48.67572" lon="7.24675">
        <ele>482.5</ele>
        <time>2023-10-06T09:59:18Z</time>
      </trkpt>
      <trkpt lat="48.67561" lon="7.24702">
        <ele>480.1</ele>
        <time>2023-10-06T09:59:25Z</time>
      </trkpt>
      <trkpt lat="48.67552" lon="7.24727">
        <ele>478.3</ele>
        <time>2023-10-06T09:59:31Z</time>
      </trkpt>
      <trkpt lat="48.67549" lon="7.24758">
        <ele>476.7</ele>
        <time>2023-10-06T09:59:39Z</time>
      </trkpt>
      <trkpt lat="48.67556" lon="7.24786">
        <ele>475.5</ele>
        <time>2023-10-06T09:59:44Z</time>
      </trkpt>
      <trkpt lat="48.67559" lon="7.24812">
        <ele>475.1</ele>
        <time>2023-10-06T09:59:50Z</time>
      </trkpt>
      <trkpt lat="48.67561" lon="7.24842">
        <ele>474.8</ele>
        <time>2023-10-06T09:59:56Z</time>
      </trkpt>
      <trkpt lat="48.67561" lon="7.24873">
        <ele>474.2</ele>
        <time>2023-10-06T10:00:03Z</time>
      </trkpt>
      <trkpt lat="48.67558" lon="7.24904">
        <ele>472.6</ele>
        <time>2023-10-06T10:00:10Z</time>
      </trkpt>
      <trkpt lat="48.67553" lon="7.24933">
        <ele>470.8</ele>
        <time>2023-10-06T10:00:16Z</time>
      </trkpt>
      <trkpt lat="48.67551" lon="7.24962">
        <ele>470.1</ele>
        <time>2023-10-06T10:00:23Z</time>
      </trkpt>
      <trkpt lat="48.67541" lon="7.24986">
        <ele>471.1</ele>
        <time>2023-10-06T10:00:32Z</time>
      </trkpt>
      <trkpt lat="48.67535" lon="7.25008">
        <ele>473.1</ele>
        <time>2023-10-06T10:00:45Z</time>
      </trkpt>
      <trkpt lat="48.67521" lon="7.2503">
        <ele>474.5</ele>
        <time>2023-10-06T10:00:54Z</time>
      </trkpt>
      <trkpt lat="48.67507" lon="7.2505">
        <ele>474.5</ele>
        <time>2023-10-06T10:01:02Z</time>
      </trkpt>
      <trkpt lat="48.67494" lon="7.25072">
        <ele>474.5</ele>
        <time>2023-10-06T10:01:10Z</time>
      </trkpt>
      <trkpt lat="48.67479" lon="7.25094">
        <ele>475.2</ele>
        <time>2023-10-06T10:01:17Z</time>
      </trkpt>
      <trkpt lat="48.67467" lon="7.25117">
        <ele>476.6</ele>
        <time>2023-10-06T10:01:28Z</time>
      </trkpt>
      <trkpt lat="48.67449" lon="7.2513">
        <ele>478.1</ele>
        <time>2023-10-06T10:01:37Z</time>
      </trkpt>
      <trkpt lat="48.67433" lon="7.25146">
        <ele>479.3</ele>
        <time>2023-10-06T10:01:47Z</time>
      </trkpt>
      <trkpt lat="48.67422" lon="7.25167">
        <ele>480.6</ele>
        <time>2023-10-06T10:01:56Z</time>
      </trkpt>
      <trkpt lat="48.67409" lon="7.25188">
        <ele>481.8</ele>
        <time>2023-10-06T10:02:07Z</time>
      </trkpt>
      <trkpt lat="48.67399" lon="7.25212">
        <ele>482.4</ele>
        <time>2023-10-06T10:02:15Z</time>
      </trkpt>
      <trkpt lat="48.67386" lon="7.25235">
        <ele>482.8</ele>
        <time>2023-10-06T10:02:23Z</time>
      </trkpt>
      <trkpt lat="48.67371" lon="7.25255">
        <ele>483.4</ele>
        <time>2023-10-06T10:02:30Z</time>
      </trkpt>
      <trkpt lat="48.67363" lon="7.25264">
        <ele>484</ele>
        <time>2023-10-06T10:02:38Z</time>
      </trkpt>
      <trkpt lat="48.67347" lon="7.25283">
        <ele>485.9</ele>
        <time>2023-10-06T10:02:50Z</time>
      </trkpt>
      <trkpt lat="48.67333" lon="7.253">
        <ele>487.8</ele>
        <time>2023-10-06T10:03:00Z</time>
      </trkpt>
      <trkpt lat="48.6732" lon="7.25324">
        <ele>489.4</ele>
        <time>2023-10-06T10:03:11Z</time>
      </trkpt>
      <trkpt lat="48.67308" lon="7.25346">
        <ele>490.7</ele>
        <time>2023-10-06T10:03:17Z</time>
      </trkpt>
      <trkpt lat="48.67301" lon="7.25372">
        <ele>491.5</ele>
        <time>2023-10-06T10:03:24Z</time>
      </trkpt>
      <trkpt lat="48.67295" lon="7.25401">
        <ele>492.1</ele>
        <time>2023-10-06T10:03:33Z</time>
      </trkpt>
      <trkpt lat="48.67289" lon="7.25405">
        <ele>491.9</ele>
        <time>2023-10-06T10:03:59Z</time>
      </trkpt>
      <trkpt lat="48.67277" lon="7.25386">
        <ele>491</ele>
        <time>2023-10-06T10:04:07Z</time>
      </trkpt>
      <trkpt lat="48.67259" lon="7.25393">
        <ele>492.5</ele>
        <time>2023-10-06T10:04:17Z</time>
      </trkpt>
      <trkpt lat="48.67242" lon="7.25408">
        <ele>493.9</ele>
        <time>2023-10-06T10:04:29Z</time>
      </trkpt>
      <trkpt lat="48.67226" lon="7.25421">
        <ele>495.2</ele>
        <time>2023-10-06T10:04:39Z</time>
      </trkpt>
      <trkpt lat="48.67217" lon="7.25431">
        <ele>496.4</ele>
        <time>2023-10-06T10:04:45Z</time>
      </trkpt>
      <trkpt lat="48.672" lon="7.25449">
        <ele>497.8</ele>
        <time>2023-10-06T10:04:51Z</time>
      </trkpt>
      <trkpt lat="48.6719" lon="7.25466">
        <ele>499</ele>
        <time>2023-10-06T10:04:54Z</time>
      </trkpt>
      <trkpt lat="48.6718" lon="7.25493">
        <ele>501.9</ele>
        <time>2023-10-06T10:04:59Z</time>
      </trkpt>
      <trkpt lat="48.6717" lon="7.25518">
        <ele>503.6</ele>
        <time>2023-10-06T10:05:05Z</time>
      </trkpt>
      <trkpt lat="48.67158" lon="7.25542">
        <ele>506.2</ele>
        <time>2023-10-06T10:05:10Z</time>
      </trkpt>
      <trkpt lat="48.67145" lon="7.25564">
        <ele>508</ele>
        <time>2023-10-06T10:05:15Z</time>
      </trkpt>
      <trkpt lat="48.67132" lon="7.25588">
        <ele>508.3</ele>
        <time>2023-10-06T10:05:22Z</time>
      </trkpt>
      <trkpt lat="48.67116" lon="7.2561">
        <ele>508.5</ele>
        <time>2023-10-06T10:05:28Z</time>
      </trkpt>
      <trkpt lat="48.671" lon="7.25629">
        <ele>508.7</ele>
        <time>2023-10-06T10:05:34Z</time>
      </trkpt>
      <trkpt lat="48.67084" lon="7.25648">
        <ele>508.8</ele>
        <time>2023-10-06T10:05:40Z</time>
      </trkpt>
      <trkpt lat="48.67068" lon="7.25666">
        <ele>508.8</ele>
        <time>2023-10-06T10:05:46Z</time>
      </trkpt>
      <trkpt lat="48.67052" lon="7.25684">
        <ele>508.7</ele>
        <time>2023-10-06T10:05:50Z</time>
      </trkpt>
      <trkpt lat="48.67037" lon="7.25701">
        <ele>508.5</ele>
        <time>2023-10-06T10:05:54Z</time>
      </trkpt>
      <trkpt lat="48.67019" lon="7.25724">
        <ele>508.7</ele>
        <time>2023-10-06T10:05:58Z</time>
      </trkpt>
      <trkpt lat="48.67007" lon="7.25744">
        <ele>508.7</ele>
        <time>2023-10-06T10:06:02Z</time>
      </trkpt>
      <trkpt lat="48.66994" lon="7.25772">
        <ele>508.7</ele>
        <time>2023-10-06T10:06:08Z</time>
      </trkpt>
      <trkpt lat="48.66982" lon="7.25794">
        <ele>508.7</ele>
        <time>2023-10-06T10:06:13Z</time>
      </trkpt>
      <trkpt lat="48.66969" lon="7.25813">
        <ele>508.7</ele>
        <time>2023-10-06T10:06:17Z</time>
      </trkpt>
      <trkpt lat="48.66955" lon="7.25838">
        <ele>508.9</ele>
        <time>2023-10-06T10:06:22Z</time>
      </trkpt>
      <trkpt lat="48.66943" lon="7.25864">
        <ele>509</ele>
        <time>2023-10-06T10:06:27Z</time>
      </trkpt>
      <trkpt lat="48.66929" lon="7.25884">
        <ele>509</ele>
        <time>2023-10-06T10:06:32Z</time>
      </trkpt>
      <trkpt lat="48.66917" lon="7.25907">
        <ele>509.3</ele>
        <time>2023-10-06T10:06:37Z</time>
      </trkpt>
      <trkpt lat="48.66902" lon="7.25931">
        <ele>509.5</ele>
        <time>2023-10-06T10:06:42Z</time>
      </trkpt>
      <trkpt lat="48.66888" lon="7.25953">
        <ele>509.9</ele>
        <time>2023-10-06T10:06:47Z</time>
      </trkpt>
      <trkpt lat="48.66872" lon="7.25969">
        <ele>510.2</ele>
        <time>2023-10-06T10:06:53Z</time>
      </trkpt>
      <trkpt lat="48.66856" lon="7.25987">
        <ele>510.5</ele>
        <time>2023-10-06T10:07:01Z</time>
      </trkpt>
      <trkpt lat="48.66837" lon="7.25996">
        <ele>510.7</ele>
        <time>2023-10-06T10:07:07Z</time>
      </trkpt>
      <trkpt lat="48.66819" lon="7.26">
        <ele>511.1</ele>
        <time>2023-10-06T10:07:12Z</time>
      </trkpt>
      <trkpt lat="48.66797" lon="7.26003">
        <ele>511.5</ele>
        <time>2023-10-06T10:07:18Z</time>
      </trkpt>
      <trkpt lat="48.66778" lon="7.26002">
        <ele>511.9</ele>
        <time>2023-10-06T10:07:23Z</time>
      </trkpt>
      <trkpt lat="48.66757" lon="7.26001">
        <ele>512.2</ele>
        <time>2023-10-06T10:07:28Z</time>
      </trkpt>
      <trkpt lat="48.66739" lon="7.25999">
        <ele>512.7</ele>
        <time>2023-10-06T10:07:33Z</time>
      </trkpt>
      <trkpt lat="48.66718" lon="7.25999">
        <ele>513.1</ele>
        <time>2023-10-06T10:07:39Z</time>
      </trkpt>
      <trkpt lat="48.66696" lon="7.26">
        <ele>513.6</ele>
        <time>2023-10-06T10:07:45Z</time>
      </trkpt>
      <trkpt lat="48.66678" lon="7.26002">
        <ele>514</ele>
        <time>2023-10-06T10:07:49Z</time>
      </trkpt>
      <trkpt lat="48.6666" lon="7.26007">
        <ele>514.3</ele>
        <time>2023-10-06T10:07:54Z</time>
      </trkpt>
      <trkpt lat="48.66642" lon="7.26018">
        <ele>514.5</ele>
        <time>2023-10-06T10:07:59Z</time>
      </trkpt>
      <trkpt lat="48.66624" lon="7.26027">
        <ele>514.8</ele>
        <time>2023-10-06T10:08:04Z</time>
      </trkpt>
      <trkpt lat="48.66605" lon="7.2604">
        <ele>515</ele>
        <time>2023-10-06T10:08:10Z</time>
      </trkpt>
      <trkpt lat="48.66589" lon="7.26059">
        <ele>515.3</ele>
        <time>2023-10-06T10:08:17Z</time>
      </trkpt>
      <trkpt lat="48.66572" lon="7.26072">
        <ele>515.6</ele>
        <time>2023-10-06T10:08:21Z</time>
      </trkpt>
      <trkpt lat="48.66552" lon="7.26087">
        <ele>516</ele>
        <time>2023-10-06T10:08:24Z</time>
      </trkpt>
      <trkpt lat="48.66536" lon="7.26101">
        <ele>516.3</ele>
        <time>2023-10-06T10:08:28Z</time>
      </trkpt>
      <trkpt lat="48.66519" lon="7.26122">
        <ele>516.7</ele>
        <time>2023-10-06T10:08:34Z</time>
      </trkpt>
      <trkpt lat="48.66503" lon="7.26141">
        <ele>517.1</ele>
        <time>2023-10-06T10:08:40Z</time>
      </trkpt>
      <trkpt lat="48.66484" lon="7.26158">
        <ele>517.6</ele>
        <time>2023-10-06T10:08:44Z</time>
      </trkpt>
      <trkpt lat="48.66465" lon="7.26175">
        <ele>518</ele>
        <time>2023-10-06T10:08:47Z</time>
      </trkpt>
      <trkpt lat="48.66448" lon="7.2619">
        <ele>518.5</ele>
        <time>2023-10-06T10:08:50Z</time>
      </trkpt>
      <trkpt lat="48.66431" lon="7.26207">
        <ele>519</ele>
        <time>2023-10-06T10:08:54Z</time>
      </trkpt>
      <trkpt lat="48.66412" lon="7.26222">
        <ele>519.5</ele>
        <time>2023-10-06T10:09:00Z</time>
      </trkpt>
      <trkpt lat="48.66392" lon="7.26231">
        <ele>519.4</ele>
        <time>2023-10-06T10:09:05Z</time>
      </trkpt>
      <trkpt lat="48.66373" lon="7.26237">
        <ele>519.5</ele>
        <time>2023-10-06T10:09:10Z</time>
      </trkpt>
      <trkpt lat="48.66354" lon="7.2624">
        <ele>519.8</ele>
        <time>2023-10-06T10:09:15Z</time>
      </trkpt>
      <trkpt lat="48.66333" lon="7.26242">
        <ele>520.2</ele>
        <time>2023-10-06T10:09:20Z</time>
      </trkpt>
      <trkpt lat="48.66312" lon="7.26243">
        <ele>520.5</ele>
        <time>2023-10-06T10:09:26Z</time>
      </trkpt>
      <trkpt lat="48.66292" lon="7.2624">
        <ele>520.8</ele>
        <time>2023-10-06T10:09:31Z</time>
      </trkpt>
      <trkpt lat="48.66273" lon="7.26239">
        <ele>521.1</ele>
        <time>2023-10-06T10:09:36Z</time>
      </trkpt>
      <trkpt lat="48.66252" lon="7.26232">
        <ele>521.4</ele>
        <time>2023-10-06T10:09:41Z</time>
      </trkpt>
      <trkpt lat="48.66231" lon="7.26226">
        <ele>521.7</ele>
        <time>2023-10-06T10:09:46Z</time>
      </trkpt>
      <trkpt lat="48.6621" lon="7.26225">
        <ele>521.9</ele>
        <time>2023-10-06T10:09:51Z</time>
      </trkpt>
      <trkpt lat="48.66191" lon="7.26228">
        <ele>522</ele>
        <time>2023-10-06T10:09:56Z</time>
      </trkpt>
      <trkpt lat="48.6617" lon="7.26236">
        <ele>522.1</ele>
        <time>2023-10-06T10:10:01Z</time>
      </trkpt>
      <trkpt lat="48.6615" lon="7.26247">
        <ele>522</ele>
        <time>2023-10-06T10:10:06Z</time>
      </trkpt>
      <trkpt lat="48.66132" lon="7.26256">
        <ele>522.3</ele>
        <time>2023-10-06T10:10:11Z</time>
      </trkpt>
      <trkpt lat="48.66114" lon="7.26264">
        <ele>522.9</ele>
        <time>2023-10-06T10:10:15Z</time>
      </trkpt>
      <trkpt lat="48.66093" lon="7.26272">
        <ele>523.4</ele>
        <time>2023-10-06T10:10:19Z</time>
      </trkpt>
      <trkpt lat="48.66072" lon="7.26283">
        <ele>523.9</ele>
        <time>2023-10-06T10:10:23Z</time>
      </trkpt>
      <trkpt lat="48.66054" lon="7.26295">
        <ele>524.6</ele>
        <time>2023-10-06T10:10:27Z</time>
      </trkpt>
      <trkpt lat="48.66043" lon="7.26298">
        <ele>525.1</ele>
        <time>2023-10-06T10:10:30Z</time>
      </trkpt>
      <trkpt lat="48.6606" lon="7.26278">
        <ele>524.1</ele>
        <time>2023-10-06T10:10:37Z</time>
      </trkpt>
      <trkpt lat="48.6608" lon="7.26271">
        <ele>523.6</ele>
        <time>2023-10-06T10:10:43Z</time>
      </trkpt>
      <trkpt lat="48.66099" lon="7.26263">
        <ele>523.2</ele>
        <time>2023-10-06T10:10:48Z</time>
      </trkpt>
      <trkpt lat="48.66119" lon="7.2625">
        <ele>522.6</ele>
        <time>2023-10-06T10:10:53Z</time>
      </trkpt>
      <trkpt lat="48.66138" lon="7.26236">
        <ele>522</ele>
        <time>2023-10-06T10:10:58Z</time>
      </trkpt>
      <trkpt lat="48.66158" lon="7.26223">
        <ele>522</ele>
        <time>2023-10-06T10:11:04Z</time>
      </trkpt>
      <trkpt lat="48.66177" lon="7.26222">
        <ele>522</ele>
        <time>2023-10-06T10:11:09Z</time>
      </trkpt>
      <trkpt lat="48.66197" lon="7.2622">
        <ele>521.9</ele>
        <time>2023-10-06T10:11:14Z</time>
      </trkpt>
      <trkpt lat="48.6622" lon="7.26226">
        <ele>521.8</ele>
        <time>2023-10-06T10:11:19Z</time>
      </trkpt>
      <trkpt lat="48.66241" lon="7.26232">
        <ele>521.5</ele>
        <time>2023-10-06T10:11:24Z</time>
      </trkpt>
      <trkpt lat="48.6626" lon="7.26235">
        <ele>521.2</ele>
        <time>2023-10-06T10:11:28Z</time>
      </trkpt>
      <trkpt lat="48.66279" lon="7.26238">
        <ele>520.9</ele>
        <time>2023-10-06T10:11:32Z</time>
      </trkpt>
      <trkpt lat="48.66299" lon="7.26239">
        <ele>520.6</ele>
        <time>2023-10-06T10:11:36Z</time>
      </trkpt>
      <trkpt lat="48.66319" lon="7.26238">
        <ele>520.4</ele>
        <time>2023-10-06T10:11:40Z</time>
      </trkpt>
      <trkpt lat="48.6634" lon="7.26236">
        <ele>520</ele>
        <time>2023-10-06T10:11:45Z</time>
      </trkpt>
      <trkpt lat="48.66362" lon="7.26233">
        <ele>519.6</ele>
        <time>2023-10-06T10:11:50Z</time>
      </trkpt>
      <trkpt lat="48.66382" lon="7.26228">
        <ele>519.4</ele>
        <time>2023-10-06T10:11:54Z</time>
      </trkpt>
      <trkpt lat="48.664" lon="7.26221">
        <ele>519.5</ele>
        <time>2023-10-06T10:11:58Z</time>
      </trkpt>
      <trkpt lat="48.66408" lon="7.26217">
        <ele>519.5</ele>
        <time>2023-10-06T10:12:00Z</time>
      </trkpt>
      <trkpt lat="48.66426" lon="7.26199">
        <ele>519</ele>
        <time>2023-10-06T10:12:05Z</time>
      </trkpt>
      <trkpt lat="48.66441" lon="7.26179">
        <ele>518.5</ele>
        <time>2023-10-06T10:12:10Z</time>
      </trkpt>
      <trkpt lat="48.66457" lon="7.26162">
        <ele>518.1</ele>
        <time>2023-10-06T10:12:15Z</time>
      </trkpt>
      <trkpt lat="48.66462" lon="7.26155">
        <ele>517.9</ele>
        <time>2023-10-06T10:12:17Z</time>
      </trkpt>
      <trkpt lat="48.66481" lon="7.26136">
        <ele>517.5</ele>
        <time>2023-10-06T10:12:22Z</time>
      </trkpt>
      <trkpt lat="48.66496" lon="7.2612">
        <ele>517.1</ele>
        <time>2023-10-06T10:12:26Z</time>
      </trkpt>
      <trkpt lat="48.66511" lon="7.26103">
        <ele>516.7</ele>
        <time>2023-10-06T10:12:31Z</time>
      </trkpt>
      <trkpt lat="48.66526" lon="7.26087">
        <ele>516.3</ele>
        <time>2023-10-06T10:12:36Z</time>
      </trkpt>
      <trkpt lat="48.66541" lon="7.26071">
        <ele>516</ele>
        <time>2023-10-06T10:12:41Z</time>
      </trkpt>
      <trkpt lat="48.66559" lon="7.26055">
        <ele>515.7</ele>
        <time>2023-10-06T10:12:46Z</time>
      </trkpt>
      <trkpt lat="48.66579" lon="7.2604">
        <ele>515.3</ele>
        <time>2023-10-06T10:12:51Z</time>
      </trkpt>
      <trkpt lat="48.66597" lon="7.26028">
        <ele>515.1</ele>
        <time>2023-10-06T10:12:55Z</time>
      </trkpt>
      <trkpt lat="48.66618" lon="7.26014">
        <ele>514.8</ele>
        <time>2023-10-06T10:13:00Z</time>
      </trkpt>
      <trkpt lat="48.66639" lon="7.26006">
        <ele>514.5</ele>
        <time>2023-10-06T10:13:04Z</time>
      </trkpt>
      <trkpt lat="48.66658" lon="7.26">
        <ele>514.2</ele>
        <time>2023-10-06T10:13:08Z</time>
      </trkpt>
      <trkpt lat="48.66679" lon="7.25995">
        <ele>513.9</ele>
        <time>2023-10-06T10:13:13Z</time>
      </trkpt>
      <trkpt lat="48.66698" lon="7.25994">
        <ele>513.5</ele>
        <time>2023-10-06T10:13:17Z</time>
      </trkpt>
      <trkpt lat="48.66718" lon="7.25994">
        <ele>513</ele>
        <time>2023-10-06T10:13:21Z</time>
      </trkpt>
      <trkpt lat="48.66728" lon="7.25995">
        <ele>512.8</ele>
        <time>2023-10-06T10:13:23Z</time>
      </trkpt>
      <trkpt lat="48.66746" lon="7.26">
        <ele>512.4</ele>
        <time>2023-10-06T10:13:27Z</time>
      </trkpt>
      <trkpt lat="48.66754" lon="7.26001">
        <ele>512.2</ele>
        <time>2023-10-06T10:13:29Z</time>
      </trkpt>
      <trkpt lat="48.66777" lon="7.26">
        <ele>511.8</ele>
        <time>2023-10-06T10:13:34Z</time>
      </trkpt>
      <trkpt lat="48.66797" lon="7.26">
        <ele>511.5</ele>
        <time>2023-10-06T10:13:38Z</time>
      </trkpt>
      <trkpt lat="48.66807" lon="7.25997">
        <ele>511.2</ele>
        <time>2023-10-06T10:13:40Z</time>
      </trkpt>
      <trkpt lat="48.66826" lon="7.25994">
        <ele>510.9</ele>
        <time>2023-10-06T10:13:44Z</time>
      </trkpt>
      <trkpt lat="48.66831" lon="7.25993">
        <ele>510.8</ele>
        <time>2023-10-06T10:13:45Z</time>
      </trkpt>
      <trkpt lat="48.6685" lon="7.25984">
        <ele>510.5</ele>
        <time>2023-10-06T10:13:50Z</time>
      </trkpt>
      <trkpt lat="48.66855" lon="7.25982">
        <ele>510.5</ele>
        <time>2023-10-06T10:13:52Z</time>
      </trkpt>
      <trkpt lat="48.66872" lon="7.2597">
        <ele>510.2</ele>
        <time>2023-10-06T10:14:01Z</time>
      </trkpt>
      <trkpt lat="48.66889" lon="7.25955">
        <ele>509.8</ele>
        <time>2023-10-06T10:14:09Z</time>
      </trkpt>
      <trkpt lat="48.66901" lon="7.25934">
        <ele>509.5</ele>
        <time>2023-10-06T10:14:17Z</time>
      </trkpt>
      <trkpt lat="48.66906" lon="7.25924">
        <ele>509.7</ele>
        <time>2023-10-06T10:14:23Z</time>
      </trkpt>
      <trkpt lat="48.66899" lon="7.25926">
        <ele>509.8</ele>
        <time>2023-10-06T10:14:27Z</time>
      </trkpt>
      <trkpt lat="48.66884" lon="7.25943">
        <ele>510.1</ele>
        <time>2023-10-06T10:14:35Z</time>
      </trkpt>
      <trkpt lat="48.66869" lon="7.2596">
        <ele>510.4</ele>
        <time>2023-10-06T10:14:44Z</time>
      </trkpt>
      <trkpt lat="48.66867" lon="7.25962">
        <ele>510.5</ele>
        <time>2023-10-06T10:14:45Z</time>
      </trkpt>
      <trkpt lat="48.66849" lon="7.25976">
        <ele>510.7</ele>
        <time>2023-10-06T10:14:51Z</time>
      </trkpt>
      <trkpt lat="48.66829" lon="7.25987">
        <ele>511</ele>
        <time>2023-10-06T10:14:58Z</time>
      </trkpt>
      <trkpt lat="48.6681" lon="7.25991">
        <ele>511.4</ele>
        <time>2023-10-06T10:15:04Z</time>
      </trkpt>
      <trkpt lat="48.6679" lon="7.2599">
        <ele>511.8</ele>
        <time>2023-10-06T10:15:11Z</time>
      </trkpt>
      <trkpt lat="48.6677" lon="7.25987">
        <ele>512.1</ele>
        <time>2023-10-06T10:15:17Z</time>
      </trkpt>
      <trkpt lat="48.6675" lon="7.25988">
        <ele>512.6</ele>
        <time>2023-10-06T10:15:23Z</time>
      </trkpt>
      <trkpt lat="48.66729" lon="7.25988">
        <ele>513</ele>
        <time>2023-10-06T10:15:30Z</time>
      </trkpt>
      <trkpt lat="48.66708" lon="7.25994">
        <ele>513.5</ele>
        <time>2023-10-06T10:15:36Z</time>
      </trkpt>
      <trkpt lat="48.66684" lon="7.26003">
        <ele>514</ele>
        <time>2023-10-06T10:15:40Z</time>
      </trkpt>
      <trkpt lat="48.66663" lon="7.26011">
        <ele>514.3</ele>
        <time>2023-10-06T10:15:43Z</time>
      </trkpt>
      <trkpt lat="48.66644" lon="7.26021">
        <ele>514.6</ele>
        <time>2023-10-06T10:15:47Z</time>
      </trkpt>
      <trkpt lat="48.66625" lon="7.26032">
        <ele>514.9</ele>
        <time>2023-10-06T10:15:52Z</time>
      </trkpt>
      <trkpt lat="48.66606" lon="7.26045">
        <ele>515.1</ele>
        <time>2023-10-06T10:15:58Z</time>
      </trkpt>
      <trkpt lat="48.66589" lon="7.26061">
        <ele>515.3</ele>
        <time>2023-10-06T10:16:04Z</time>
      </trkpt>
      <trkpt lat="48.66571" lon="7.26077">
        <ele>515.7</ele>
        <time>2023-10-06T10:16:09Z</time>
      </trkpt>
      <trkpt lat="48.66556" lon="7.26093">
        <ele>516</ele>
        <time>2023-10-06T10:16:14Z</time>
      </trkpt>
      <trkpt lat="48.66537" lon="7.2611">
        <ele>516.4</ele>
        <time>2023-10-06T10:16:19Z</time>
      </trkpt>
      <trkpt lat="48.6652" lon="7.26128">
        <ele>516.7</ele>
        <time>2023-10-06T10:16:24Z</time>
      </trkpt>
      <trkpt lat="48.66503" lon="7.26147">
        <ele>517.2</ele>
        <time>2023-10-06T10:16:30Z</time>
      </trkpt>
      <trkpt lat="48.66487" lon="7.26168">
        <ele>517.6</ele>
        <time>2023-10-06T10:16:35Z</time>
      </trkpt>
      <trkpt lat="48.6647" lon="7.26188">
        <ele>518.1</ele>
        <time>2023-10-06T10:16:39Z</time>
      </trkpt>
      <trkpt lat="48.66451" lon="7.26205">
        <ele>518.6</ele>
        <time>2023-10-06T10:16:43Z</time>
      </trkpt>
      <trkpt lat="48.66433" lon="7.26217">
        <ele>519.1</ele>
        <time>2023-10-06T10:16:47Z</time>
      </trkpt>
      <trkpt lat="48.66413" lon="7.26228">
        <ele>519.5</ele>
        <time>2023-10-06T10:16:52Z</time>
      </trkpt>
      <trkpt lat="48.66395" lon="7.26232">
        <ele>519.5</ele>
        <time>2023-10-06T10:16:56Z</time>
      </trkpt>
      <trkpt lat="48.66375" lon="7.26236">
        <ele>519.5</ele>
        <time>2023-10-06T10:17:01Z</time>
      </trkpt>
      <trkpt lat="48.66355" lon="7.26238">
        <ele>519.8</ele>
        <time>2023-10-06T10:17:05Z</time>
      </trkpt>
      <trkpt lat="48.66337" lon="7.26242">
        <ele>520.1</ele>
        <time>2023-10-06T10:17:09Z</time>
      </trkpt>
      <trkpt lat="48.66314" lon="7.26241">
        <ele>520.4</ele>
        <time>2023-10-06T10:17:14Z</time>
      </trkpt>
      <trkpt lat="48.66295" lon="7.26239">
        <ele>520.7</ele>
        <time>2023-10-06T10:17:18Z</time>
      </trkpt>
      <trkpt lat="48.66274" lon="7.26236">
        <ele>521</ele>
        <time>2023-10-06T10:17:22Z</time>
      </trkpt>
      <trkpt lat="48.66252" lon="7.26228">
        <ele>521.3</ele>
        <time>2023-10-06T10:17:27Z</time>
      </trkpt>
      <trkpt lat="48.66232" lon="7.26225">
        <ele>521.6</ele>
        <time>2023-10-06T10:17:31Z</time>
      </trkpt>
      <trkpt lat="48.66211" lon="7.26224">
        <ele>521.8</ele>
        <time>2023-10-06T10:17:36Z</time>
      </trkpt>
      <trkpt lat="48.66189" lon="7.26225">
        <ele>521.9</ele>
        <time>2023-10-06T10:17:41Z</time>
      </trkpt>
      <trkpt lat="48.66168" lon="7.26231">
        <ele>522</ele>
        <time>2023-10-06T10:17:46Z</time>
      </trkpt>
      <trkpt lat="48.6615" lon="7.26242">
        <ele>522</ele>
        <time>2023-10-06T10:17:51Z</time>
      </trkpt>
      <trkpt lat="48.66132" lon="7.26252">
        <ele>522</ele>
        <time>2023-10-06T10:17:56Z</time>
      </trkpt>
      <trkpt lat="48.66113" lon="7.26261">
        <ele>522.5</ele>
        <time>2023-10-06T10:18:01Z</time>
      </trkpt>
      <trkpt lat="48.6609" lon="7.2627">
        <ele>523.1</ele>
        <time>2023-10-06T10:18:05Z</time>
      </trkpt>
      <trkpt lat="48.66072" lon="7.26279">
        <ele>523.6</ele>
        <time>2023-10-06T10:18:08Z</time>
      </trkpt>
      <trkpt lat="48.66054" lon="7.26288">
        <ele>524</ele>
        <time>2023-10-06T10:18:11Z</time>
      </trkpt>
      <trkpt lat="48.66036" lon="7.26297">
        <ele>524.6</ele>
        <time>2023-10-06T10:18:15Z</time>
      </trkpt>
      <trkpt lat="48.66037" lon="7.26296">
        <ele>524.7</ele>
        <time>2023-10-06T10:18:16Z</time>
      </trkpt>
      <trkpt lat="48.66043" lon="7.2629">
        <ele>525</ele>
        <time>2023-10-06T10:18:18Z</time>
      </trkpt>
      <trkpt lat="48.66062" lon="7.26279">
        <ele>524.1</ele>
        <time>2023-10-06T10:18:23Z</time>
      </trkpt>
      <trkpt lat="48.66083" lon="7.26272">
        <ele>523.6</ele>
        <time>2023-10-06T10:18:28Z</time>
      </trkpt>
      <trkpt lat="48.66103" lon="7.26261">
        <ele>523</ele>
        <time>2023-10-06T10:18:33Z</time>
      </trkpt>
      <trkpt lat="48.66121" lon="7.26246">
        <ele>522.5</ele>
        <time>2023-10-06T10:18:38Z</time>
      </trkpt>
      <trkpt lat="48.66141" lon="7.26236">
        <ele>522</ele>
        <time>2023-10-06T10:18:43Z</time>
      </trkpt>
      <trkpt lat="48.6616" lon="7.26223">
        <ele>522</ele>
        <time>2023-10-06T10:18:48Z</time>
      </trkpt>
      <trkpt lat="48.66181" lon="7.26219">
        <ele>522</ele>
        <time>2023-10-06T10:18:53Z</time>
      </trkpt>
      <trkpt lat="48.66199" lon="7.26221">
        <ele>521.9</ele>
        <time>2023-10-06T10:18:57Z</time>
      </trkpt>
      <trkpt lat="48.66219" lon="7.26221">
        <ele>521.8</ele>
        <time>2023-10-06T10:19:02Z</time>
      </trkpt>
      <trkpt lat="48.6624" lon="7.26227">
        <ele>521.5</ele>
        <time>2023-10-06T10:19:07Z</time>
      </trkpt>
      <trkpt lat="48.66261" lon="7.26231">
        <ele>521.2</ele>
        <time>2023-10-06T10:19:12Z</time>
      </trkpt>
      <trkpt lat="48.66283" lon="7.26235">
        <ele>520.9</ele>
        <time>2023-10-06T10:19:17Z</time>
      </trkpt>
      <trkpt lat="48.66303" lon="7.26236">
        <ele>520.6</ele>
        <time>2023-10-06T10:19:21Z</time>
      </trkpt>
      <trkpt lat="48.66321" lon="7.26237">
        <ele>520.4</ele>
        <time>2023-10-06T10:19:25Z</time>
      </trkpt>
      <trkpt lat="48.6634" lon="7.26238">
        <ele>520</ele>
        <time>2023-10-06T10:19:29Z</time>
      </trkpt>
      <trkpt lat="48.66359" lon="7.26234">
        <ele>519.7</ele>
        <time>2023-10-06T10:19:33Z</time>
      </trkpt>
      <trkpt lat="48.66378" lon="7.26229">
        <ele>519.4</ele>
        <time>2023-10-06T10:19:37Z</time>
      </trkpt>
      <trkpt lat="48.664" lon="7.26224">
        <ele>519.5</ele>
        <time>2023-10-06T10:19:42Z</time>
      </trkpt>
      <trkpt lat="48.6641" lon="7.26219">
        <ele>519.5</ele>
        <time>2023-10-06T10:19:45Z</time>
      </trkpt>
      <trkpt lat="48.66426" lon="7.26204">
        <ele>519.1</ele>
        <time>2023-10-06T10:19:50Z</time>
      </trkpt>
      <trkpt lat="48.6644" lon="7.26181">
        <ele>518.5</ele>
        <time>2023-10-06T10:19:56Z</time>
      </trkpt>
      <trkpt lat="48.66446" lon="7.26174">
        <ele>518.4</ele>
        <time>2023-10-06T10:19:58Z</time>
      </trkpt>
      <trkpt lat="48.66461" lon="7.2616">
        <ele>518</ele>
        <time>2023-10-06T10:20:03Z</time>
      </trkpt>
      <trkpt lat="48.66476" lon="7.26144">
        <ele>517.6</ele>
        <time>2023-10-06T10:20:07Z</time>
      </trkpt>
      <trkpt lat="48.66491" lon="7.26126">
        <ele>517.2</ele>
        <time>2023-10-06T10:20:11Z</time>
      </trkpt>
      <trkpt lat="48.66507" lon="7.26104">
        <ele>516.7</ele>
        <time>2023-10-06T10:20:16Z</time>
      </trkpt>
      <trkpt lat="48.66524" lon="7.26087">
        <ele>516.3</ele>
        <time>2023-10-06T10:20:21Z</time>
      </trkpt>
      <trkpt lat="48.66541" lon="7.26072">
        <ele>516</ele>
        <time>2023-10-06T10:20:26Z</time>
      </trkpt>
      <trkpt lat="48.66559" lon="7.26057">
        <ele>515.6</ele>
        <time>2023-10-06T10:20:31Z</time>
      </trkpt>
      <trkpt lat="48.66578" lon="7.26043">
        <ele>515.3</ele>
        <time>2023-10-06T10:20:36Z</time>
      </trkpt>
      <trkpt lat="48.66599" lon="7.26027">
        <ele>515</ele>
        <time>2023-10-06T10:20:41Z</time>
      </trkpt>
      <trkpt lat="48.66619" lon="7.26012">
        <ele>514.7</ele>
        <time>2023-10-06T10:20:46Z</time>
      </trkpt>
      <trkpt lat="48.66636" lon="7.26005">
        <ele>514.5</ele>
        <time>2023-10-06T10:20:50Z</time>
      </trkpt>
      <trkpt lat="48.66656" lon="7.25997">
        <ele>514.2</ele>
        <time>2023-10-06T10:20:55Z</time>
      </trkpt>
      <trkpt lat="48.66672" lon="7.25993">
        <ele>513.9</ele>
        <time>2023-10-06T10:20:59Z</time>
      </trkpt>
      <trkpt lat="48.6669" lon="7.25989">
        <ele>513.5</ele>
        <time>2023-10-06T10:21:03Z</time>
      </trkpt>
      <trkpt lat="48.66712" lon="7.25986">
        <ele>513</ele>
        <time>2023-10-06T10:21:08Z</time>
      </trkpt>
      <trkpt lat="48.66731" lon="7.25986">
        <ele>512.6</ele>
        <time>2023-10-06T10:21:12Z</time>
      </trkpt>
      <trkpt lat="48.66749" lon="7.25988">
        <ele>512.2</ele>
        <time>2023-10-06T10:21:16Z</time>
      </trkpt>
      <trkpt lat="48.66771" lon="7.2599">
        <ele>511.8</ele>
        <time>2023-10-06T10:21:21Z</time>
      </trkpt>
      <trkpt lat="48.66791" lon="7.2599">
        <ele>511.4</ele>
        <time>2023-10-06T10:21:25Z</time>
      </trkpt>
      <trkpt lat="48.66812" lon="7.25987">
        <ele>511</ele>
        <time>2023-10-06T10:21:30Z</time>
      </trkpt>
      <trkpt lat="48.66831" lon="7.25983">
        <ele>510.7</ele>
        <time>2023-10-06T10:21:34Z</time>
      </trkpt>
      <trkpt lat="48.66846" lon="7.25977">
        <ele>510.5</ele>
        <time>2023-10-06T10:21:37Z</time>
      </trkpt>
      <trkpt lat="48.66864" lon="7.25961">
        <ele>510.2</ele>
        <time>2023-10-06T10:21:42Z</time>
      </trkpt>
      <trkpt lat="48.66885" lon="7.25948">
        <ele>509.7</ele>
        <time>2023-10-06T10:21:47Z</time>
      </trkpt>
      <trkpt lat="48.66902" lon="7.25931">
        <ele>509.5</ele>
        <time>2023-10-06T10:21:51Z</time>
      </trkpt>
      <trkpt lat="48.66919" lon="7.25912">
        <ele>509.2</ele>
        <time>2023-10-06T10:21:56Z</time>
      </trkpt>
      <trkpt lat="48.66935" lon="7.25889">
        <ele>509</ele>
        <time>2023-10-06T10:22:01Z</time>
      </trkpt>
      <trkpt lat="48.66938" lon="7.25884">
        <ele>509</ele>
        <time>2023-10-06T10:22:02Z</time>
      </trkpt>
      <trkpt lat="48.6695" lon="7.25856">
        <ele>508.9</ele>
        <time>2023-10-06T10:22:07Z</time>
      </trkpt>
      <trkpt lat="48.66955" lon="7.25844">
        <ele>508.8</ele>
        <time>2023-10-06T10:22:09Z</time>
      </trkpt>
      <trkpt lat="48.66969" lon="7.25819">
        <ele>508.7</ele>
        <time>2023-10-06T10:22:14Z</time>
      </trkpt>
      <trkpt lat="48.66982" lon="7.25794">
        <ele>508.7</ele>
        <time>2023-10-06T10:22:19Z</time>
      </trkpt>
      <trkpt lat="48.66996" lon="7.25774">
        <ele>508.7</ele>
        <time>2023-10-06T10:22:24Z</time>
      </trkpt>
      <trkpt lat="48.6701" lon="7.25749">
        <ele>508.7</ele>
        <time>2023-10-06T10:22:29Z</time>
      </trkpt>
      <trkpt lat="48.67021" lon="7.25725">
        <ele>508.6</ele>
        <time>2023-10-06T10:22:33Z</time>
      </trkpt>
      <trkpt lat="48.67034" lon="7.25704">
        <ele>508.6</ele>
        <time>2023-10-06T10:22:37Z</time>
      </trkpt>
      <trkpt lat="48.67041" lon="7.25696">
        <ele>508.6</ele>
        <time>2023-10-06T10:22:39Z</time>
      </trkpt>
      <trkpt lat="48.67059" lon="7.25679">
        <ele>508.8</ele>
        <time>2023-10-06T10:22:44Z</time>
      </trkpt>
      <trkpt lat="48.67075" lon="7.25663">
        <ele>508.8</ele>
        <time>2023-10-06T10:22:48Z</time>
      </trkpt>
      <trkpt lat="48.67089" lon="7.25646">
        <ele>508.7</ele>
        <time>2023-10-06T10:22:52Z</time>
      </trkpt>
      <trkpt lat="48.67103" lon="7.25632">
        <ele>508.6</ele>
        <time>2023-10-06T10:22:56Z</time>
      </trkpt>
      <trkpt lat="48.67121" lon="7.25615">
        <ele>508.4</ele>
        <time>2023-10-06T10:23:01Z</time>
      </trkpt>
      <trkpt lat="48.6714" lon="7.25601">
        <ele>508.1</ele>
        <time>2023-10-06T10:23:06Z</time>
      </trkpt>
      <trkpt lat="48.67152" lon="7.25596">
        <ele>507.9</ele>
        <time>2023-10-06T10:23:09Z</time>
      </trkpt>
      <trkpt lat="48.67174" lon="7.25598">
        <ele>507</ele>
        <time>2023-10-06T10:23:14Z</time>
      </trkpt>
      <trkpt lat="48.67193" lon="7.25601">
        <ele>505.8</ele>
        <time>2023-10-06T10:23:18Z</time>
      </trkpt>
      <trkpt lat="48.67197" lon="7.25603">
        <ele>505.4</ele>
        <time>2023-10-06T10:23:19Z</time>
      </trkpt>
      <trkpt lat="48.67207" lon="7.25604">
        <ele>504.7</ele>
        <time>2023-10-06T10:23:21Z</time>
      </trkpt>
      <trkpt lat="48.67216" lon="7.25603">
        <ele>503.9</ele>
        <time>2023-10-06T10:23:23Z</time>
      </trkpt>
      <trkpt lat="48.67223" lon="7.25597">
        <ele>503.4</ele>
        <time>2023-10-06T10:23:25Z</time>
      </trkpt>
      <trkpt lat="48.67226" lon="7.25586">
        <ele>502.8</ele>
        <time>2023-10-06T10:23:27Z</time>
      </trkpt>
      <trkpt lat="48.67226" lon="7.25573">
        <ele>502.2</ele>
        <time>2023-10-06T10:23:29Z</time>
      </trkpt>
      <trkpt lat="48.67223" lon="7.25541">
        <ele>501</ele>
        <time>2023-10-06T10:23:34Z</time>
      </trkpt>
      <trkpt lat="48.67222" lon="7.25533">
        <ele>501</ele>
        <time>2023-10-06T10:23:35Z</time>
      </trkpt>
      <trkpt lat="48.67218" lon="7.25523">
        <ele>500.8</ele>
        <time>2023-10-06T10:23:37Z</time>
      </trkpt>
      <trkpt lat="48.67212" lon="7.25515">
        <ele>500.9</ele>
        <time>2023-10-06T10:23:39Z</time>
      </trkpt>
      <trkpt lat="48.67194" lon="7.25497">
        <ele>501.8</ele>
        <time>2023-10-06T10:23:44Z</time>
      </trkpt>
      <trkpt lat="48.6719" lon="7.25493">
        <ele>501.8</ele>
        <time>2023-10-06T10:23:45Z</time>
      </trkpt>
      <trkpt lat="48.67184" lon="7.2548">
        <ele>501.1</ele>
        <time>2023-10-06T10:23:47Z</time>
      </trkpt>
      <trkpt lat="48.67184" lon="7.25468">
        <ele>499.8</ele>
        <time>2023-10-06T10:23:49Z</time>
      </trkpt>
      <trkpt lat="48.67187" lon="7.2546">
        <ele>498.9</ele>
        <time>2023-10-06T10:23:51Z</time>
      </trkpt>
      <trkpt lat="48.67193" lon="7.25455">
        <ele>498.6</ele>
        <time>2023-10-06T10:23:53Z</time>
      </trkpt>
      <trkpt lat="48.6721" lon="7.2544">
        <ele>497.6</ele>
        <time>2023-10-06T10:24:03Z</time>
      </trkpt>
      <trkpt lat="48.67218" lon="7.25423">
        <ele>496</ele>
        <time>2023-10-06T10:24:15Z</time>
      </trkpt>
      <trkpt lat="48.67221" lon="7.2542">
        <ele>495.9</ele>
        <time>2023-10-06T10:24:17Z</time>
      </trkpt>
      <trkpt lat="48.67228" lon="7.25414">
        <ele>495.2</ele>
        <time>2023-10-06T10:24:23Z</time>
      </trkpt>
      <trkpt lat="48.67219" lon="7.25439">
        <ele>497.1</ele>
        <time>2023-10-06T10:24:35Z</time>
      </trkpt>
      <trkpt lat="48.67202" lon="7.25457">
        <ele>498.6</ele>
        <time>2023-10-06T10:24:45Z</time>
      </trkpt>
      <trkpt lat="48.6719" lon="7.25478">
        <ele>500.2</ele>
        <time>2023-10-06T10:24:50Z</time>
      </trkpt>
      <trkpt lat="48.67177" lon="7.25504">
        <ele>502.4</ele>
        <time>2023-10-06T10:24:56Z</time>
      </trkpt>
      <trkpt lat="48.67163" lon="7.25525">
        <ele>504.1</ele>
        <time>2023-10-06T10:25:01Z</time>
      </trkpt>
      <trkpt lat="48.67151" lon="7.2555">
        <ele>506.5</ele>
        <time>2023-10-06T10:25:06Z</time>
      </trkpt>
      <trkpt lat="48.67141" lon="7.25574">
        <ele>508.1</ele>
        <time>2023-10-06T10:25:12Z</time>
      </trkpt>
      <trkpt lat="48.67127" lon="7.25596">
        <ele>508.3</ele>
        <time>2023-10-06T10:25:18Z</time>
      </trkpt>
      <trkpt lat="48.67112" lon="7.25614">
        <ele>508.6</ele>
        <time>2023-10-06T10:25:24Z</time>
      </trkpt>
      <trkpt lat="48.67095" lon="7.25631">
        <ele>508.7</ele>
        <time>2023-10-06T10:25:29Z</time>
      </trkpt>
      <trkpt lat="48.6708" lon="7.25647">
        <ele>508.8</ele>
        <time>2023-10-06T10:25:34Z</time>
      </trkpt>
      <trkpt lat="48.67063" lon="7.25665">
        <ele>508.8</ele>
        <time>2023-10-06T10:25:40Z</time>
      </trkpt>
      <trkpt lat="48.67047" lon="7.25688">
        <ele>508.6</ele>
        <time>2023-10-06T10:25:46Z</time>
      </trkpt>
      <trkpt lat="48.67032" lon="7.25708">
        <ele>508.6</ele>
        <time>2023-10-06T10:25:50Z</time>
      </trkpt>
      <trkpt lat="48.67018" lon="7.25728">
        <ele>508.7</ele>
        <time>2023-10-06T10:25:54Z</time>
      </trkpt>
      <trkpt lat="48.67003" lon="7.25749">
        <ele>508.7</ele>
        <time>2023-10-06T10:25:58Z</time>
      </trkpt>
      <trkpt lat="48.66989" lon="7.25774">
        <ele>508.7</ele>
        <time>2023-10-06T10:26:03Z</time>
      </trkpt>
      <trkpt lat="48.66977" lon="7.25802">
        <ele>508.7</ele>
        <time>2023-10-06T10:26:08Z</time>
      </trkpt>
      <trkpt lat="48.66964" lon="7.25823">
        <ele>508.8</ele>
        <time>2023-10-06T10:26:12Z</time>
      </trkpt>
      <trkpt lat="48.66952" lon="7.25846">
        <ele>508.9</ele>
        <time>2023-10-06T10:26:16Z</time>
      </trkpt>
      <trkpt lat="48.66939" lon="7.25873">
        <ele>509</ele>
        <time>2023-10-06T10:26:21Z</time>
      </trkpt>
      <trkpt lat="48.66925" lon="7.25896">
        <ele>509.1</ele>
        <time>2023-10-06T10:26:26Z</time>
      </trkpt>
      <trkpt lat="48.66911" lon="7.25918">
        <ele>509.4</ele>
        <time>2023-10-06T10:26:31Z</time>
      </trkpt>
      <trkpt lat="48.66894" lon="7.25938">
        <ele>509.7</ele>
        <time>2023-10-06T10:26:36Z</time>
      </trkpt>
      <trkpt lat="48.66877" lon="7.25957">
        <ele>510.1</ele>
        <time>2023-10-06T10:26:41Z</time>
      </trkpt>
      <trkpt lat="48.66861" lon="7.25971">
        <ele>510.4</ele>
        <time>2023-10-06T10:26:48Z</time>
      </trkpt>
      <trkpt lat="48.66843" lon="7.25983">
        <ele>510.6</ele>
        <time>2023-10-06T10:26:57Z</time>
      </trkpt>
      <trkpt lat="48.66821" lon="7.25988">
        <ele>511</ele>
        <time>2023-10-06T10:27:04Z</time>
      </trkpt>
      <trkpt lat="48.66801" lon="7.25987">
        <ele>511.4</ele>
        <time>2023-10-06T10:27:10Z</time>
      </trkpt>
      <trkpt lat="48.66782" lon="7.2599">
        <ele>511.8</ele>
        <time>2023-10-06T10:27:15Z</time>
      </trkpt>
      <trkpt lat="48.66762" lon="7.25992">
        <ele>512.1</ele>
        <time>2023-10-06T10:27:21Z</time>
      </trkpt>
      <trkpt lat="48.66742" lon="7.25991">
        <ele>512.5</ele>
        <time>2023-10-06T10:27:26Z</time>
      </trkpt>
      <trkpt lat="48.66723" lon="7.25989">
        <ele>513</ele>
        <time>2023-10-06T10:27:31Z</time>
      </trkpt>
      <trkpt lat="48.66703" lon="7.2599">
        <ele>513.4</ele>
        <time>2023-10-06T10:27:36Z</time>
      </trkpt>
      <trkpt lat="48.66685" lon="7.25996">
        <ele>513.8</ele>
        <time>2023-10-06T10:27:41Z</time>
      </trkpt>
      <trkpt lat="48.66662" lon="7.26007">
        <ele>514.2</ele>
        <time>2023-10-06T10:27:47Z</time>
      </trkpt>
      <trkpt lat="48.66643" lon="7.26018">
        <ele>514.5</ele>
        <time>2023-10-06T10:27:51Z</time>
      </trkpt>
      <trkpt lat="48.66626" lon="7.26028">
        <ele>514.8</ele>
        <time>2023-10-06T10:27:54Z</time>
      </trkpt>
      <trkpt lat="48.66607" lon="7.26043">
        <ele>515</ele>
        <time>2023-10-06T10:27:58Z</time>
      </trkpt>
      <trkpt lat="48.66589" lon="7.26059">
        <ele>515.3</ele>
        <time>2023-10-06T10:28:03Z</time>
      </trkpt>
      <trkpt lat="48.66571" lon="7.26072">
        <ele>515.6</ele>
        <time>2023-10-06T10:28:08Z</time>
      </trkpt>
      <trkpt lat="48.66555" lon="7.26087">
        <ele>515.9</ele>
        <time>2023-10-06T10:28:13Z</time>
      </trkpt>
      <trkpt lat="48.66537" lon="7.26104">
        <ele>516.3</ele>
        <time>2023-10-06T10:28:19Z</time>
      </trkpt>
      <trkpt lat="48.66521" lon="7.26119">
        <ele>516.6</ele>
        <time>2023-10-06T10:28:23Z</time>
      </trkpt>
      <trkpt lat="48.66505" lon="7.26137">
        <ele>517.1</ele>
        <time>2023-10-06T10:28:28Z</time>
      </trkpt>
      <trkpt lat="48.66488" lon="7.26156">
        <ele>517.5</ele>
        <time>2023-10-06T10:28:33Z</time>
      </trkpt>
      <trkpt lat="48.66472" lon="7.26177">
        <ele>517.9</ele>
        <time>2023-10-06T10:28:38Z</time>
      </trkpt>
      <trkpt lat="48.66454" lon="7.26198">
        <ele>518.5</ele>
        <time>2023-10-06T10:28:43Z</time>
      </trkpt>
      <trkpt lat="48.66438" lon="7.26211">
        <ele>518.9</ele>
        <time>2023-10-06T10:28:47Z</time>
      </trkpt>
      <trkpt lat="48.66421" lon="7.26223">
        <ele>519.4</ele>
        <time>2023-10-06T10:28:51Z</time>
      </trkpt>
      <trkpt lat="48.66402" lon="7.26232">
        <ele>519.5</ele>
        <time>2023-10-06T10:28:56Z</time>
      </trkpt>
      <trkpt lat="48.66383" lon="7.26238">
        <ele>519.4</ele>
        <time>2023-10-06T10:29:01Z</time>
      </trkpt>
      <trkpt lat="48.66364" lon="7.26242">
        <ele>519.7</ele>
        <time>2023-10-06T10:29:05Z</time>
      </trkpt>
      <trkpt lat="48.66347" lon="7.26246">
        <ele>520</ele>
        <time>2023-10-06T10:29:09Z</time>
      </trkpt>
      <trkpt lat="48.66328" lon="7.26248">
        <ele>520.3</ele>
        <time>2023-10-06T10:29:13Z</time>
      </trkpt>
      <trkpt lat="48.66307" lon="7.26247">
        <ele>520.6</ele>
        <time>2023-10-06T10:29:18Z</time>
      </trkpt>
      <trkpt lat="48.66286" lon="7.26244">
        <ele>520.9</ele>
        <time>2023-10-06T10:29:23Z</time>
      </trkpt>
      <trkpt lat="48.66265" lon="7.26238">
        <ele>521.2</ele>
        <time>2023-10-06T10:29:27Z</time>
      </trkpt>
      <trkpt lat="48.66246" lon="7.26233">
        <ele>521.5</ele>
        <time>2023-10-06T10:29:31Z</time>
      </trkpt>
      <trkpt lat="48.66228" lon="7.2623">
        <ele>521.7</ele>
        <time>2023-10-06T10:29:35Z</time>
      </trkpt>
      <trkpt lat="48.6621" lon="7.26227">
        <ele>521.8</ele>
        <time>2023-10-06T10:29:39Z</time>
      </trkpt>
      <trkpt lat="48.66189" lon="7.26224">
        <ele>522</ele>
        <time>2023-10-06T10:29:44Z</time>
      </trkpt>
      <trkpt lat="48.66182" lon="7.26225">
        <ele>522</ele>
        <time>2023-10-06T10:29:49Z</time>
      </trkpt>
      <trkpt lat="48.66201" lon="7.26222">
        <ele>521.9</ele>
        <time>2023-10-06T10:29:56Z</time>
      </trkpt>
      <trkpt lat="48.66222" lon="7.26222">
        <ele>521.7</ele>
        <time>2023-10-06T10:30:02Z</time>
      </trkpt>
      <trkpt lat="48.66243" lon="7.26224">
        <ele>521.5</ele>
        <time>2023-10-06T10:30:08Z</time>
      </trkpt>
      <trkpt lat="48.66261" lon="7.26229">
        <ele>521.2</ele>
        <time>2023-10-06T10:30:13Z</time>
      </trkpt>
      <trkpt lat="48.6628" lon="7.26233">
        <ele>520.9</ele>
        <time>2023-10-06T10:30:18Z</time>
      </trkpt>
      <trkpt lat="48.66301" lon="7.26236">
        <ele>520.6</ele>
        <time>2023-10-06T10:30:23Z</time>
      </trkpt>
      <trkpt lat="48.66323" lon="7.26237">
        <ele>520.3</ele>
        <time>2023-10-06T10:30:28Z</time>
      </trkpt>
      <trkpt lat="48.66343" lon="7.26237">
        <ele>520</ele>
        <time>2023-10-06T10:30:33Z</time>
      </trkpt>
      <trkpt lat="48.66366" lon="7.26234">
        <ele>519.6</ele>
        <time>2023-10-06T10:30:38Z</time>
      </trkpt>
      <trkpt lat="48.66385" lon="7.26229">
        <ele>519.4</ele>
        <time>2023-10-06T10:30:42Z</time>
      </trkpt>
      <trkpt lat="48.66405" lon="7.26221">
        <ele>519.5</ele>
        <time>2023-10-06T10:30:47Z</time>
      </trkpt>
      <trkpt lat="48.66423" lon="7.26207">
        <ele>519.2</ele>
        <time>2023-10-06T10:30:52Z</time>
      </trkpt>
      <trkpt lat="48.66438" lon="7.26186">
        <ele>518.6</ele>
        <time>2023-10-06T10:30:58Z</time>
      </trkpt>
      <trkpt lat="48.66455" lon="7.26169">
        <ele>518.2</ele>
        <time>2023-10-06T10:31:03Z</time>
      </trkpt>
      <trkpt lat="48.66474" lon="7.26151">
        <ele>517.7</ele>
        <time>2023-10-06T10:31:08Z</time>
      </trkpt>
      <trkpt lat="48.66492" lon="7.26136">
        <ele>517.3</ele>
        <time>2023-10-06T10:31:13Z</time>
      </trkpt>
      <trkpt lat="48.66508" lon="7.26115">
        <ele>516.8</ele>
        <time>2023-10-06T10:31:18Z</time>
      </trkpt>
      <trkpt lat="48.66524" lon="7.26094">
        <ele>516.4</ele>
        <time>2023-10-06T10:31:23Z</time>
      </trkpt>
      <trkpt lat="48.6654" lon="7.26079">
        <ele>516.1</ele>
        <time>2023-10-06T10:31:28Z</time>
      </trkpt>
      <trkpt lat="48.66557" lon="7.26061">
        <ele>515.7</ele>
        <time>2023-10-06T10:31:34Z</time>
      </trkpt>
      <trkpt lat="48.66573" lon="7.26045">
        <ele>515.4</ele>
        <time>2023-10-06T10:31:39Z</time>
      </trkpt>
      <trkpt lat="48.66591" lon="7.26036">
        <ele>515.1</ele>
        <time>2023-10-06T10:31:43Z</time>
      </trkpt>
      <trkpt lat="48.66608" lon="7.26024">
        <ele>514.9</ele>
        <time>2023-10-06T10:31:47Z</time>
      </trkpt>
      <trkpt lat="48.66626" lon="7.26013">
        <ele>514.6</ele>
        <time>2023-10-06T10:31:51Z</time>
      </trkpt>
      <trkpt lat="48.66645" lon="7.26004">
        <ele>514.4</ele>
        <time>2023-10-06T10:31:55Z</time>
      </trkpt>
      <trkpt lat="48.66664" lon="7.25997">
        <ele>514.1</ele>
        <time>2023-10-06T10:32:00Z</time>
      </trkpt>
      <trkpt lat="48.66683" lon="7.25994">
        <ele>513.7</ele>
        <time>2023-10-06T10:32:05Z</time>
      </trkpt>
      <trkpt lat="48.66702" lon="7.25993">
        <ele>513.3</ele>
        <time>2023-10-06T10:32:09Z</time>
      </trkpt>
      <trkpt lat="48.6672" lon="7.2599">
        <ele>512.9</ele>
        <time>2023-10-06T10:32:13Z</time>
      </trkpt>
      <trkpt lat="48.66738" lon="7.25992">
        <ele>512.5</ele>
        <time>2023-10-06T10:32:17Z</time>
      </trkpt>
      <trkpt lat="48.66758" lon="7.25993">
        <ele>512</ele>
        <time>2023-10-06T10:32:21Z</time>
      </trkpt>
      <trkpt lat="48.66778" lon="7.25991">
        <ele>511.7</ele>
        <time>2023-10-06T10:32:25Z</time>
      </trkpt>
      <trkpt lat="48.66796" lon="7.2599">
        <ele>511.3</ele>
        <time>2023-10-06T10:32:28Z</time>
      </trkpt>
      <trkpt lat="48.66818" lon="7.25985">
        <ele>510.9</ele>
        <time>2023-10-06T10:32:32Z</time>
      </trkpt>
      <trkpt lat="48.66839" lon="7.25978">
        <ele>510.6</ele>
        <time>2023-10-06T10:32:36Z</time>
      </trkpt>
      <trkpt lat="48.66844" lon="7.25975">
        <ele>510.5</ele>
        <time>2023-10-06T10:32:37Z</time>
      </trkpt>
      <trkpt lat="48.66863" lon="7.25962">
        <ele>510.2</ele>
        <time>2023-10-06T10:32:41Z</time>
      </trkpt>
      <trkpt lat="48.66881" lon="7.25946">
        <ele>509.8</ele>
        <time>2023-10-06T10:32:45Z</time>
      </trkpt>
      <trkpt lat="48.66896" lon="7.25928">
        <ele>509.5</ele>
        <time>2023-10-06T10:32:49Z</time>
      </trkpt>
      <trkpt lat="48.66913" lon="7.25906">
        <ele>509.2</ele>
        <time>2023-10-06T10:32:54Z</time>
      </trkpt>
      <trkpt lat="48.66926" lon="7.25885">
        <ele>509</ele>
        <time>2023-10-06T10:32:58Z</time>
      </trkpt>
      <trkpt lat="48.66939" lon="7.25865">
        <ele>509</ele>
        <time>2023-10-06T10:33:02Z</time>
      </trkpt>
      <trkpt lat="48.66949" lon="7.25853">
        <ele>508.9</ele>
        <time>2023-10-06T10:33:05Z</time>
      </trkpt>
      <trkpt lat="48.66961" lon="7.25832">
        <ele>508.8</ele>
        <time>2023-10-06T10:33:09Z</time>
      </trkpt>
      <trkpt lat="48.66968" lon="7.25824">
        <ele>508.7</ele>
        <time>2023-10-06T10:33:11Z</time>
      </trkpt>
      <trkpt lat="48.66976" lon="7.25811">
        <ele>508.7</ele>
        <time>2023-10-06T10:33:14Z</time>
      </trkpt>
      <trkpt lat="48.66988" lon="7.25789">
        <ele>508.7</ele>
        <time>2023-10-06T10:33:19Z</time>
      </trkpt>
      <trkpt lat="48.67004" lon="7.25766">
        <ele>508.7</ele>
        <time>2023-10-06T10:33:24Z</time>
      </trkpt>
      <trkpt lat="48.6701" lon="7.25756">
        <ele>508.7</ele>
        <time>2023-10-06T10:33:26Z</time>
      </trkpt>
      <trkpt lat="48.67021" lon="7.25734">
        <ele>508.7</ele>
        <time>2023-10-06T10:33:30Z</time>
      </trkpt>
      <trkpt lat="48.67029" lon="7.25719">
        <ele>508.6</ele>
        <time>2023-10-06T10:33:33Z</time>
      </trkpt>
      <trkpt lat="48.67037" lon="7.25705">
        <ele>508.6</ele>
        <time>2023-10-06T10:33:36Z</time>
      </trkpt>
      <trkpt lat="48.67043" lon="7.25697">
        <ele>508.6</ele>
        <time>2023-10-06T10:33:38Z</time>
      </trkpt>
      <trkpt lat="48.67058" lon="7.25679">
        <ele>508.8</ele>
        <time>2023-10-06T10:33:42Z</time>
      </trkpt>
      <trkpt lat="48.67069" lon="7.25666">
        <ele>508.8</ele>
        <time>2023-10-06T10:33:45Z</time>
      </trkpt>
      <trkpt lat="48.67084" lon="7.25653">
        <ele>508.8</ele>
        <time>2023-10-06T10:33:49Z</time>
      </trkpt>
      <trkpt lat="48.671" lon="7.25637">
        <ele>508.7</ele>
        <time>2023-10-06T10:33:58Z</time>
      </trkpt>
      <trkpt lat="48.67102" lon="7.25633">
        <ele>508.6</ele>
        <time>2023-10-06T10:34:02Z</time>
      </trkpt>
      <trkpt lat="48.67104" lon="7.25627">
        <ele>508.6</ele>
        <time>2023-10-06T10:34:04Z</time>
      </trkpt>
      <trkpt lat="48.67118" lon="7.25611">
        <ele>508.4</ele>
        <time>2023-10-06T10:34:12Z</time>
      </trkpt>
      <trkpt lat="48.67135" lon="7.25594">
        <ele>508.2</ele>
        <time>2023-10-06T10:34:23Z</time>
      </trkpt>
      <trkpt lat="48.67153" lon="7.25584">
        <ele>507.9</ele>
        <time>2023-10-06T10:34:30Z</time>
      </trkpt>
      <trkpt lat="48.67171" lon="7.25589">
        <ele>507.2</ele>
        <time>2023-10-06T10:34:38Z</time>
      </trkpt>
      <trkpt lat="48.67187" lon="7.25595">
        <ele>506</ele>
        <time>2023-10-06T10:34:45Z</time>
      </trkpt>
      <trkpt lat="48.67204" lon="7.25606">
        <ele>504.4</ele>
        <time>2023-10-06T10:34:52Z</time>
      </trkpt>
      <trkpt lat="48.6722" lon="7.25625">
        <ele>501.2</ele>
        <time>2023-10-06T10:35:00Z</time>
      </trkpt>
      <trkpt lat="48.67235" lon="7.25645">
        <ele>499.5</ele>
        <time>2023-10-06T10:35:07Z</time>
      </trkpt>
      <trkpt lat="48.67244" lon="7.25669">
        <ele>497.8</ele>
        <time>2023-10-06T10:35:14Z</time>
      </trkpt>
      <trkpt lat="48.67251" lon="7.25695">
        <ele>496.6</ele>
        <time>2023-10-06T10:35:20Z</time>
      </trkpt>
      <trkpt lat="48.67258" lon="7.25723">
        <ele>495.1</ele>
        <time>2023-10-06T10:35:27Z</time>
      </trkpt>
      <trkpt lat="48.67263" lon="7.2575">
        <ele>493.3</ele>
        <time>2023-10-06T10:35:35Z</time>
      </trkpt>
      <trkpt lat="48.67273" lon="7.25776">
        <ele>491.8</ele>
        <time>2023-10-06T10:35:42Z</time>
      </trkpt>
      <trkpt lat="48.67284" lon="7.25801">
        <ele>490.6</ele>
        <time>2023-10-06T10:35:50Z</time>
      </trkpt>
      <trkpt lat="48.67296" lon="7.25824">
        <ele>489.6</ele>
        <time>2023-10-06T10:35:56Z</time>
      </trkpt>
      <trkpt lat="48.6731" lon="7.25842">
        <ele>488.6</ele>
        <time>2023-10-06T10:36:04Z</time>
      </trkpt>
      <trkpt lat="48.67325" lon="7.25859">
        <ele>487.5</ele>
        <time>2023-10-06T10:36:13Z</time>
      </trkpt>
      <trkpt lat="48.67344" lon="7.25867">
        <ele>485.6</ele>
        <time>2023-10-06T10:36:22Z</time>
      </trkpt>
      <trkpt lat="48.67363" lon="7.25876">
        <ele>483.6</ele>
        <time>2023-10-06T10:36:32Z</time>
      </trkpt>
      <trkpt lat="48.6738" lon="7.25886">
        <ele>482</ele>
        <time>2023-10-06T10:36:39Z</time>
      </trkpt>
      <trkpt lat="48.674" lon="7.25893">
        <ele>480.5</ele>
        <time>2023-10-06T10:36:46Z</time>
      </trkpt>
      <trkpt lat="48.67419" lon="7.25904">
        <ele>478.9</ele>
        <time>2023-10-06T10:36:54Z</time>
      </trkpt>
      <trkpt lat="48.67437" lon="7.25917">
        <ele>477.2</ele>
        <time>2023-10-06T10:37:01Z</time>
      </trkpt>
      <trkpt lat="48.67454" lon="7.25924">
        <ele>475.3</ele>
        <time>2023-10-06T10:37:07Z</time>
      </trkpt>
      <trkpt lat="48.67472" lon="7.25934">
        <ele>473.2</ele>
        <time>2023-10-06T10:37:14Z</time>
      </trkpt>
      <trkpt lat="48.67491" lon="7.25946">
        <ele>471</ele>
        <time>2023-10-06T10:37:21Z</time>
      </trkpt>
      <trkpt lat="48.6751" lon="7.25956">
        <ele>468.7</ele>
        <time>2023-10-06T10:37:28Z</time>
      </trkpt>
      <trkpt lat="48.67528" lon="7.25967">
        <ele>466.8</ele>
        <time>2023-10-06T10:37:35Z</time>
      </trkpt>
      <trkpt lat="48.67544" lon="7.25981">
        <ele>465</ele>
        <time>2023-10-06T10:37:42Z</time>
      </trkpt>
      <trkpt lat="48.67558" lon="7.25999">
        <ele>463.5</ele>
        <time>2023-10-06T10:37:49Z</time>
      </trkpt>
      <trkpt lat="48.67564" lon="7.26028">
        <ele>462.6</ele>
        <time>2023-10-06T10:37:57Z</time>
      </trkpt>
      <trkpt lat="48.67566" lon="7.26048">
        <ele>462.2</ele>
        <time>2023-10-06T10:38:06Z</time>
      </trkpt>
      <trkpt lat="48.67568" lon="7.26019">
        <ele>462.9</ele>
        <time>2023-10-06T10:38:16Z</time>
      </trkpt>
      <trkpt lat="48.67566" lon="7.25991">
        <ele>463.6</ele>
        <time>2023-10-06T10:38:24Z</time>
      </trkpt>
      <trkpt lat="48.67565" lon="7.25961">
        <ele>463.5</ele>
        <time>2023-10-06T10:38:34Z</time>
      </trkpt>
      <trkpt lat="48.67566" lon="7.25933">
        <ele>462.6</ele>
        <time>2023-10-06T10:38:44Z</time>
      </trkpt>
      <trkpt lat="48.67569" lon="7.25906">
        <ele>461.2</ele>
        <time>2023-10-06T10:38:54Z</time>
      </trkpt>
      <trkpt lat="48.67568" lon="7.25891">
        <ele>459.9</ele>
        <time>2023-10-06T10:39:00Z</time>
      </trkpt>
      <trkpt lat="48.67566" lon="7.25887">
        <ele>459.9</ele>
        <time>2023-10-06T10:39:02Z</time>
      </trkpt>
      <trkpt lat="48.6755" lon="7.25871">
        <ele>460.2</ele>
        <time>2023-10-06T10:39:12Z</time>
      </trkpt>
      <trkpt lat="48.67547" lon="7.25871">
        <ele>460.3</ele>
        <time>2023-10-06T10:39:16Z</time>
      </trkpt>
      <trkpt lat="48.67534" lon="7.25891">
        <ele>461.2</ele>
        <time>2023-10-06T10:39:26Z</time>
      </trkpt>
      <trkpt lat="48.67519" lon="7.25906">
        <ele>463.4</ele>
        <time>2023-10-06T10:39:40Z</time>
      </trkpt>
      <trkpt lat="48.67502" lon="7.25921">
        <ele>466.8</ele>
        <time>2023-10-06T10:39:53Z</time>
      </trkpt>
      <trkpt lat="48.67494" lon="7.25926">
        <ele>468.6</ele>
        <time>2023-10-06T10:40:00Z</time>
      </trkpt>
      <trkpt lat="48.67474" lon="7.25924">
        <ele>472.3</ele>
        <time>2023-10-06T10:40:11Z</time>
      </trkpt>
      <trkpt lat="48.67457" lon="7.25916">
        <ele>475.2</ele>
        <time>2023-10-06T10:40:23Z</time>
      </trkpt>
      <trkpt lat="48.67438" lon="7.25907">
        <ele>477.2</ele>
        <time>2023-10-06T10:40:31Z</time>
      </trkpt>
      <trkpt lat="48.67419" lon="7.25897">
        <ele>478.9</ele>
        <time>2023-10-06T10:40:42Z</time>
      </trkpt>
      <trkpt lat="48.674" lon="7.25891">
        <ele>480.4</ele>
        <time>2023-10-06T10:40:54Z</time>
      </trkpt>
      <trkpt lat="48.67382" lon="7.25887">
        <ele>481.7</ele>
        <time>2023-10-06T10:41:04Z</time>
      </trkpt>
      <trkpt lat="48.67363" lon="7.25882">
        <ele>483.2</ele>
        <time>2023-10-06T10:41:15Z</time>
      </trkpt>
      <trkpt lat="48.67345" lon="7.25878">
        <ele>484.9</ele>
        <time>2023-10-06T10:41:25Z</time>
      </trkpt>
      <trkpt lat="48.67324" lon="7.25869">
        <ele>487.1</ele>
        <time>2023-10-06T10:41:35Z</time>
      </trkpt>
      <trkpt lat="48.67307" lon="7.25853">
        <ele>488.3</ele>
        <time>2023-10-06T10:41:43Z</time>
      </trkpt>
      <trkpt lat="48.67289" lon="7.25835">
        <ele>489.4</ele>
        <time>2023-10-06T10:41:49Z</time>
      </trkpt>
      <trkpt lat="48.67275" lon="7.25815">
        <ele>490.5</ele>
        <time>2023-10-06T10:41:55Z</time>
      </trkpt>
      <trkpt lat="48.67265" lon="7.2579">
        <ele>491.5</ele>
        <time>2023-10-06T10:42:02Z</time>
      </trkpt>
      <trkpt lat="48.67251" lon="7.25768">
        <ele>492.9</ele>
        <time>2023-10-06T10:42:08Z</time>
      </trkpt>
      <trkpt lat="48.67245" lon="7.25741">
        <ele>494.6</ele>
        <time>2023-10-06T10:42:17Z</time>
      </trkpt>
      <trkpt lat="48.67239" lon="7.25715">
        <ele>496</ele>
        <time>2023-10-06T10:42:25Z</time>
      </trkpt>
      <trkpt lat="48.67239" lon="7.25682">
        <ele>497.5</ele>
        <time>2023-10-06T10:42:35Z</time>
      </trkpt>
      <trkpt lat="48.67235" lon="7.25655">
        <ele>499.1</ele>
        <time>2023-10-06T10:42:44Z</time>
      </trkpt>
      <trkpt lat="48.67229" lon="7.25625">
        <ele>501.1</ele>
        <time>2023-10-06T10:42:53Z</time>
      </trkpt>
      <trkpt lat="48.67222" lon="7.25598">
        <ele>502.5</ele>
        <time>2023-10-06T10:43:03Z</time>
      </trkpt>
      <trkpt lat="48.67226" lon="7.25572">
        <ele>502.1</ele>
        <time>2023-10-06T10:43:11Z</time>
      </trkpt>
      <trkpt lat="48.67235" lon="7.25548">
        <ele>501</ele>
        <time>2023-10-06T10:43:17Z</time>
      </trkpt>
      <trkpt lat="48.67248" lon="7.25527">
        <ele>499.6</ele>
        <time>2023-10-06T10:43:25Z</time>
      </trkpt>
      <trkpt lat="48.67262" lon="7.25508">
        <ele>498.3</ele>
        <time>2023-10-06T10:43:32Z</time>
      </trkpt>
      <trkpt lat="48.67277" lon="7.25489">
        <ele>497</ele>
        <time>2023-10-06T10:43:39Z</time>
      </trkpt>
      <trkpt lat="48.67289" lon="7.25466">
        <ele>495.4</ele>
        <time>2023-10-06T10:43:46Z</time>
      </trkpt>
      <trkpt lat="48.67297" lon="7.25441">
        <ele>494.1</ele>
        <time>2023-10-06T10:43:53Z</time>
      </trkpt>
      <trkpt lat="48.67303" lon="7.25427">
        <ele>493.4</ele>
        <time>2023-10-06T10:43:58Z</time>
      </trkpt>
      <trkpt lat="48.67323" lon="7.25417">
        <ele>492.3</ele>
        <time>2023-10-06T10:44:06Z</time>
      </trkpt>
      <trkpt lat="48.67337" lon="7.25398">
        <ele>491.8</ele>
        <time>2023-10-06T10:44:13Z</time>
      </trkpt>
      <trkpt lat="48.67348" lon="7.25376">
        <ele>491</ele>
        <time>2023-10-06T10:44:22Z</time>
      </trkpt>
      <trkpt lat="48.67353" lon="7.25346">
        <ele>490</ele>
        <time>2023-10-06T10:44:31Z</time>
      </trkpt>
      <trkpt lat="48.67355" lon="7.25346">
        <ele>489.9</ele>
        <time>2023-10-06T10:44:36Z</time>
      </trkpt>
      <trkpt lat="48.67349" lon="7.25372">
        <ele>490.7</ele>
        <time>2023-10-06T10:44:48Z</time>
      </trkpt>
      <trkpt lat="48.67339" lon="7.25397">
        <ele>491.3</ele>
        <time>2023-10-06T10:44:59Z</time>
      </trkpt>
      <trkpt lat="48.67325" lon="7.25416">
        <ele>491.9</ele>
        <time>2023-10-06T10:45:07Z</time>
      </trkpt>
      <trkpt lat="48.67323" lon="7.25417">
        <ele>491.9</ele>
        <time>2023-10-06T10:45:08Z</time>
      </trkpt>
      <trkpt lat="48.67305" lon="7.25407">
        <ele>492.1</ele>
        <time>2023-10-06T10:45:19Z</time>
      </trkpt>
      <trkpt lat="48.67302" lon="7.25405">
        <ele>492.1</ele>
        <time>2023-10-06T10:45:21Z</time>
      </trkpt>
    </trkseg>
  </trk>
</gpx>